Time;durP1;ratioP1;P1;durP2;ratioP2;P2;SDS_P1;SDS_P2;PMS_P1;PMS_P2;Temp;Humidity;BMP_temperature;BMP_pressure;BME280_temperature;BME280_humidity;BME280_pressure;Samples;Min_cycle;Max_cycle;Signal;HPM_P1;HPM_P2
2021/04/28 00:01:35;;;;;;;2.40;1.15;;;;;;;;;;5115730;28;20062;-74
2021/04/28 00:04:01;;;;;;;1.80;1.00;;;;;;;;;;5097497;28;20059;-75
2021/04/28 00:06:26;;;;;;;2.90;1.00;;;;;;;;;;5115863;28;20028;-74
2021/04/28 00:08:51;;;;;;;2.40;1.10;;;;;;;;;;5114442;28;20063;-74
2021/04/28 00:11:17;;;;;;;1.80;1.07;;;;;;;;;;5115535;28;20051;-74
2021/04/28 00:13:43;;;;;;;2.37;1.10;;;;;;;;;;5097276;28;20028;-74
2021/04/28 00:16:08;;;;;;;1.70;1.00;;;;;;;;;;5097274;28;20032;-75
2021/04/28 00:18:33;;;;;;;2.03;0.97;;;;;;;;;;5114265;28;20161;-74
2021/04/28 00:20:59;;;;;;;2.07;1.00;;;;;;;;;;5114505;28;20036;-75
2021/04/28 00:23:24;;;;;;;1.97;1.10;;;;;;;;;;5115284;28;20051;-75
2021/04/28 00:25:50;;;;;;;3.33;1.10;;;;;;;;;;5115057;28;20114;-74
2021/04/28 00:28:15;;;;;;;1.63;0.93;;;;;;;;;;5114128;28;20032;-74
2021/04/28 00:30:41;;;;;;;2.33;1.10;;;;;;;;;;5115123;28;20039;-74
2021/04/28 00:33:06;;;;;;;2.07;1.00;;;;;;;;;;5096888;28;20096;-74
2021/04/28 00:35:31;;;;;;;2.67;1.20;;;;;;;;;;5096816;28;20031;-74
2021/04/28 00:37:57;;;;;;;1.80;1.03;;;;;;;;;;5113784;28;20101;-74
2021/04/28 00:40:29;;;;;;;2.63;0.97;;;;;;;;;;5096847;28;20074;-74
2021/04/28 00:42:55;;;;;;;2.33;1.13;;;;;;;;;;5113680;28;20080;-74
2021/04/28 00:45:20;;;;;;;2.93;1.20;;;;;;;;;;5114920;28;20554;-74
2021/04/28 00:47:46;;;;;;;2.50;1.00;;;;;;;;;;5096737;28;20110;-74
2021/04/28 00:50:14;;;;;;;1.70;1.00;;;;;;;;;;5096853;28;20042;-75
2021/04/28 00:52:39;;;;;;;2.80;1.30;;;;;;;;;;5113680;28;20098;-75
2021/04/28 00:55:05;;;;;;;3.47;1.30;;;;;;;;;;5096480;28;20035;-74
2021/04/28 00:57:31;;;;;;;2.25;1.10;;;;;;;;;;5113481;28;20023;-74
2021/04/28 00:59:56;;;;;;;2.83;0.93;;;;;;;;;;5113458;28;20034;-74
2021/04/28 01:02:22;;;;;;;2.00;1.10;;;;;;;;;;5096961;28;20137;-74
2021/04/28 01:04:47;;;;;;;2.20;1.03;;;;;;;;;;5113398;28;20446;-75
2021/04/28 01:07:12;;;;;;;2.20;1.20;;;;;;;;;;5096105;28;20032;-75
2021/04/28 01:09:39;;;;;;;2.30;1.30;;;;;;;;;;5096154;28;20494;-74
2021/04/28 01:12:05;;;;;;;2.28;1.00;;;;;;;;;;5113145;28;20067;-74
2021/04/28 01:14:31;;;;;;;1.88;1.10;;;;;;;;;;5096453;28;20472;-74
2021/04/28 01:16:56;;;;;;;1.80;1.00;;;;;;;;;;5096002;28;20058;-74
2021/04/28 01:19:22;;;;;;;2.27;0.90;;;;;;;;;;5114321;28;20114;-74
2021/04/28 01:21:47;;;;;;;1.87;1.00;;;;;;;;;;5096166;28;20031;-75
2021/04/28 01:24:13;;;;;;;2.13;1.03;;;;;;;;;;5095923;28;20122;-75
2021/04/28 01:26:38;;;;;;;2.03;1.00;;;;;;;;;;5095914;28;20031;-74
2021/04/28 01:29:03;;;;;;;2.37;1.20;;;;;;;;;;5112820;28;20030;-74
2021/04/28 01:31:30;;;;;;;2.43;1.10;;;;;;;;;;5095721;28;20546;-74
2021/04/28 01:33:57;;;;;;;1.70;1.00;;;;;;;;;;5095906;28;20490;-75
2021/04/28 01:36:25;;;;;;;2.28;0.93;;;;;;;;;;5095973;28;20043;-74
2021/04/28 01:38:52;;;;;;;2.28;1.20;;;;;;;;;;5095676;28;20110;-74
2021/04/28 01:41:18;;;;;;;1.77;1.10;;;;;;;;;;5095672;28;20414;-74
2021/04/28 01:43:43;;;;;;;2.20;1.20;;;;;;;;;;5095671;28;20032;-74
2021/04/28 01:46:09;;;;;;;3.13;1.17;;;;;;;;;;5078538;28;20032;-74
2021/04/28 01:48:34;;;;;;;2.67;1.17;;;;;;;;;;5095721;28;20115;-74
2021/04/28 01:51:00;;;;;;;1.47;0.90;;;;;;;;;;5095572;28;20067;-74
2021/04/28 01:53:25;;;;;;;1.93;1.00;;;;;;;;;;5095685;28;20110;-74
2021/04/28 01:55:53;;;;;;;2.13;1.10;;;;;;;;;;5095383;28;20447;-74
2021/04/28 01:58:18;;;;;;;2.25;1.10;;;;;;;;;;5095815;28;20027;-74
2021/04/28 02:00:43;;;;;;;1.67;0.83;;;;;;;;;;5095592;28;20074;-74
2021/04/28 02:03:09;;;;;;;1.10;0.80;;;;;;;;;;5112548;28;20063;-74
2021/04/28 02:05:34;;;;;;;1.77;1.07;;;;;;;;;;5095311;28;20470;-74
2021/04/28 02:08:00;;;;;;;1.97;1.00;;;;;;;;;;5095391;28;20044;-74
2021/04/28 02:10:25;;;;;;;2.17;1.10;;;;;;;;;;5095796;28;20062;-75
2021/04/28 02:12:51;;;;;;;1.73;1.00;;;;;;;;;;5095400;28;20034;-75
2021/04/28 02:15:17;;;;;;;2.73;1.27;;;;;;;;;;5095254;28;20502;-75
2021/04/28 02:17:43;;;;;;;1.90;1.00;;;;;;;;;;5078329;28;20043;-75
2021/04/28 02:20:10;;;;;;;1.97;1.20;;;;;;;;;;5095469;28;20031;-74
2021/04/28 02:22:37;;;;;;;1.85;1.00;;;;;;;;;;5095280;28;20019;-75
2021/04/28 02:25:03;;;;;;;1.60;1.00;;;;;;;;;;5112183;28;20084;-75
2021/04/28 02:27:28;;;;;;;2.27;1.10;;;;;;;;;;5112277;28;20036;-75
2021/04/28 02:29:55;;;;;;;2.17;1.10;;;;;;;;;;5113483;28;20126;-75
2021/04/28 02:32:20;;;;;;;;;;;;;;;;;;5113791;28;20028;-75
2021/04/28 02:34:45;;;;;;;2.17;1.00;;;;;;;;;;5095108;28;19916;-75
2021/04/28 02:39:41;;;;;;;2.17;1.00;;;;;;;;;;5064099;28;20067;-78
2021/04/28 02:42:07;;;;;;;1.85;1.08;;;;;;;;;;5029007;28;20037;-78
2021/04/28 02:44:33;;;;;;;1.73;0.90;;;;;;;;;;5023598;28;20037;-78
2021/04/28 02:46:59;;;;;;;2.00;1.10;;;;;;;;;;5008336;28;20109;-78
2021/04/28 02:49:24;;;;;;;1.70;1.00;;;;;;;;;;5020632;28;20515;-78
2021/04/28 02:51:50;;;;;;;1.93;1.13;;;;;;;;;;5004081;28;20064;-78
2021/04/28 02:54:15;;;;;;;1.55;0.98;;;;;;;;;;5003965;28;20129;-78
2021/04/28 02:56:41;;;;;;;2.40;1.20;;;;;;;;;;5004131;28;20068;-78
2021/04/28 02:59:06;;;;;;;2.53;1.10;;;;;;;;;;5004230;28;20042;-78
2021/04/28 03:01:31;;;;;;;1.97;1.00;;;;;;;;;;5004474;28;20034;-78
2021/04/28 03:03:57;;;;;;;2.30;1.20;;;;;;;;;;5007020;28;20064;-78
2021/04/28 03:06:23;;;;;;;2.07;1.20;;;;;;;;;;5023257;28;20036;-78
2021/04/28 03:08:48;;;;;;;1.70;1.10;;;;;;;;;;5023494;28;20083;-78
2021/04/28 03:11:13;;;;;;;1.93;1.10;;;;;;;;;;5040010;28;20108;-78
2021/04/28 03:13:40;;;;;;;1.93;1.00;;;;;;;;;;5023819;28;20538;-78
2021/04/28 03:16:06;;;;;;;1.85;0.93;;;;;;;;;;5023865;28;20036;-78
2021/04/28 03:18:31;;;;;;;2.42;1.00;;;;;;;;;;5023469;28;20036;-78
2021/04/28 03:20:57;;;;;;;2.10;1.20;;;;;;;;;;5040466;28;20463;-78
2021/04/28 03:23:22;;;;;;;1.60;1.07;;;;;;;;;;5023104;28;20030;-78
2021/04/28 03:25:47;;;;;;;2.30;1.13;;;;;;;;;;5039680;28;20048;-78
2021/04/28 03:28:13;;;;;;;2.30;1.07;;;;;;;;;;5039696;28;20068;-78
2021/04/28 03:30:38;;;;;;;2.23;1.10;;;;;;;;;;5007319;28;20029;-78
2021/04/28 03:33:04;;;;;;;3.27;1.23;;;;;;;;;;5023301;28;20068;-78
2021/04/28 03:35:29;;;;;;;2.03;1.10;;;;;;;;;;5039689;28;20053;-78
2021/04/28 03:37:55;;;;;;;1.63;1.10;;;;;;;;;;5022873;28;20032;-78
2021/04/28 03:40:20;;;;;;;2.17;1.33;;;;;;;;;;5039532;28;20028;-78
2021/04/28 03:42:45;;;;;;;1.67;0.80;;;;;;;;;;5039661;28;20049;-78
2021/04/28 03:45:11;;;;;;;2.03;1.03;;;;;;;;;;5022831;28;20116;-78
2021/04/28 03:47:36;;;;;;;2.13;1.20;;;;;;;;;;5006615;28;20487;-78
2021/04/28 03:50:03;;;;;;;2.90;1.00;;;;;;;;;;5023257;28;20044;-78
2021/04/28 03:52:28;;;;;;;2.30;1.13;;;;;;;;;;5023542;28;20057;-78
2021/04/28 03:54:54;;;;;;;2.10;1.20;;;;;;;;;;5056325;28;20511;-78
2021/04/28 03:57:19;;;;;;;3.80;1.07;;;;;;;;;;5050888;28;20069;-78
2021/04/28 03:59:44;;;;;;;1.80;1.10;;;;;;;;;;5003256;28;20513;-78
2021/04/28 04:02:10;;;;;;;2.13;1.10;;;;;;;;;;5003042;28;20119;-78
2021/04/28 04:04:36;;;;;;;2.00;1.10;;;;;;;;;;5037038;28;20053;-78
2021/04/28 04:07:01;;;;;;;1.95;1.30;;;;;;;;;;5002530;28;20033;-78
2021/04/28 04:09:27;;;;;;;1.73;1.00;;;;;;;;;;5003084;28;20118;-78
2021/04/28 04:11:52;;;;;;;1.87;1.30;;;;;;;;;;5037377;28;20029;-78
2021/04/28 04:14:17;;;;;;;1.97;1.00;;;;;;;;;;5018950;28;20048;-78
2021/04/28 04:16:43;;;;;;;2.53;1.17;;;;;;;;;;5002599;28;20068;-78
2021/04/28 04:19:08;;;;;;;2.07;1.10;;;;;;;;;;5002778;28;20033;-78
2021/04/28 04:21:34;;;;;;;2.27;1.10;;;;;;;;;;5003033;28;20442;-78
2021/04/28 04:23:59;;;;;;;2.47;1.20;;;;;;;;;;5019117;28;20029;-78
2021/04/28 04:26:24;;;;;;;2.07;1.10;;;;;;;;;;5018867;28;20069;-78
2021/04/28 04:28:50;;;;;;;3.47;1.07;;;;;;;;;;5002253;28;20041;-78
2021/04/28 04:31:15;;;;;;;1.63;1.20;;;;;;;;;;5019255;28;20445;-78
2021/04/28 04:33:40;;;;;;;1.87;1.03;;;;;;;;;;5002640;28;20025;-78
2021/04/28 04:36:06;;;;;;;1.97;1.10;;;;;;;;;;5002442;28;20025;-78
2021/04/28 04:38:31;;;;;;;2.03;1.30;;;;;;;;;;5002531;28;20559;-78
2021/04/28 04:40:56;;;;;;;2.37;1.20;;;;;;;;;;5002318;28;20064;-78
2021/04/28 04:43:22;;;;;;;1.83;1.07;;;;;;;;;;5018736;28;20115;-78
2021/04/28 04:45:47;;;;;;;1.87;1.10;;;;;;;;;;5018866;28;20025;-78
2021/04/28 04:48:13;;;;;;;2.30;1.20;;;;;;;;;;5002466;28;20048;-78
2021/04/28 04:50:38;;;;;;;2.30;1.10;;;;;;;;;;5018895;28;20112;-78
2021/04/28 04:53:06;;;;;;;1.50;1.00;;;;;;;;;;5002087;28;20099;-77
2021/04/28 04:55:32;;;;;;;2.30;1.20;;;;;;;;;;5002730;28;20041;-78
2021/04/28 04:57:57;;;;;;;3.13;1.00;;;;;;;;;;5018794;28;20047;-78
2021/04/28 05:00:23;;;;;;;2.47;1.40;;;;;;;;;;5002668;28;20120;-78
2021/04/28 05:02:48;;;;;;;2.33;1.10;;;;;;;;;;5018570;28;20558;-78
2021/04/28 05:05:14;;;;;;;2.60;1.30;;;;;;;;;;5017672;28;20025;-78
2021/04/28 05:07:40;;;;;;;2.70;1.27;;;;;;;;;;5001974;28;20041;-78
2021/04/28 05:10:06;;;;;;;1.70;1.03;;;;;;;;;;5002093;28;20630;-78
2021/04/28 05:12:31;;;;;;;2.15;1.15;;;;;;;;;;5002200;28;20096;-78
2021/04/28 05:14:57;;;;;;;2.23;1.07;;;;;;;;;;5001747;28;20053;-78
2021/04/28 05:17:22;;;;;;;2.47;1.40;;;;;;;;;;5017990;28;20233;-78
2021/04/28 05:19:47;;;;;;;2.30;1.20;;;;;;;;;;5035505;28;20067;-78
2021/04/28 05:22:13;;;;;;;2.33;1.30;;;;;;;;;;5001778;28;20120;-79
2021/04/28 05:24:38;;;;;;;1.83;1.10;;;;;;;;;;5001806;28;20065;-78
2021/04/28 05:27:04;;;;;;;3.07;1.20;;;;;;;;;;5001458;28;20499;-79
2021/04/28 05:29:30;;;;;;;2.53;1.30;;;;;;;;;;5001219;28;20484;-79
2021/04/28 05:31:55;;;;;;;2.40;1.20;;;;;;;;;;5002099;28;20029;-78
2021/04/28 05:34:21;;;;;;;2.70;1.30;;;;;;;;;;5002363;28;20097;-79
2021/04/28 05:36:46;;;;;;;3.10;1.33;;;;;;;;;;5018431;28;20087;-78
2021/04/28 05:39:11;;;;;;;2.80;1.30;;;;;;;;;;5001828;28;20095;-78
2021/04/28 05:41:37;;;;;;;3.83;1.30;;;;;;;;;;5002087;28;20064;-78
2021/04/28 05:44:02;;;;;;;2.93;1.40;;;;;;;;;;5018142;28;20098;-79
2021/04/28 05:46:27;;;;;;;2.80;1.33;;;;;;;;;;5018266;28;20040;-79
2021/04/28 05:48:53;;;;;;;2.80;1.30;;;;;;;;;;5018236;28;20531;-79
2021/04/28 05:51:18;;;;;;;2.50;1.20;;;;;;;;;;4985731;28;20065;-79
2021/04/28 05:53:44;;;;;;;2.47;1.30;;;;;;;;;;5001798;28;20119;-79
2021/04/28 05:56:09;;;;;;;2.10;1.30;;;;;;;;;;5001756;28;20092;-78
2021/04/28 05:58:34;;;;;;;2.80;1.30;;;;;;;;;;5001453;28;20033;-78
2021/04/28 06:01:00;;;;;;;2.33;1.30;;;;;;;;;;5001939;28;20029;-78
2021/04/28 06:03:25;;;;;;;3.40;1.60;;;;;;;;;;5001449;28;20025;-78
2021/04/28 06:05:51;;;;;;;1.97;1.20;;;;;;;;;;5035269;28;20029;-78
2021/04/28 06:08:16;;;;;;;3.20;1.53;;;;;;;;;;5001673;28;20127;-78
2021/04/28 06:10:42;;;;;;;3.27;1.40;;;;;;;;;;5001663;28;20045;-78
2021/04/28 06:13:07;;;;;;;2.50;1.40;;;;;;;;;;5001466;28;20036;-78
2021/04/28 06:15:32;;;;;;;2.13;1.30;;;;;;;;;;5001028;28;20450;-78
2021/04/28 06:17:58;;;;;;;2.37;1.40;;;;;;;;;;5002061;28;20093;-78
2021/04/28 06:20:23;;;;;;;2.40;1.30;;;;;;;;;;5021885;28;20060;-78
2021/04/28 06:22:48;;;;;;;2.33;1.27;;;;;;;;;;4989063;28;20033;-78
2021/04/28 06:25:14;;;;;;;1.97;1.33;;;;;;;;;;5005641;28;20089;-78
2021/04/28 06:27:40;;;;;;;3.13;1.40;;;;;;;;;;5005537;28;20057;-78
2021/04/28 06:30:06;;;;;;;2.40;1.47;;;;;;;;;;5021494;28;20534;-78
2021/04/28 06:32:31;;;;;;;2.35;1.38;;;;;;;;;;5004960;28;20116;-78
2021/04/28 06:34:56;;;;;;;2.27;1.30;;;;;;;;;;5004895;28;20064;-78
2021/04/28 06:37:22;;;;;;;2.77;1.37;;;;;;;;;;5038566;28;20089;-78
2021/04/28 06:39:48;;;;;;;2.53;1.50;;;;;;;;;;5021268;28;20057;-78
2021/04/28 06:42:14;;;;;;;2.90;1.30;;;;;;;;;;5020948;28;20102;-79
2021/04/28 06:44:39;;;;;;;3.10;1.42;;;;;;;;;;5004973;28;20439;-78
2021/04/28 06:47:04;;;;;;;2.40;1.50;;;;;;;;;;5020544;28;20064;-78
2021/04/28 06:49:30;;;;;;;4.73;1.30;;;;;;;;;;5004452;28;20535;-78
2021/04/28 06:51:55;;;;;;;2.13;1.30;;;;;;;;;;5038762;28;20463;-77
2021/04/28 06:54:21;;;;;;;2.63;1.70;;;;;;;;;;5004415;28;20490;-77
2021/04/28 06:56:46;;;;;;;3.27;1.60;;;;;;;;;;5020935;28;20030;-78
2021/04/28 06:59:15;;;;;;;2.93;1.50;;;;;;;;;;5019686;28;20039;-79
2021/04/28 07:01:41;;;;;;;2.70;1.50;;;;;;;;;;5005286;28;20037;-79
2021/04/28 07:04:06;;;;;;;2.47;1.20;;;;;;;;;;5004494;28;20095;-79
2021/04/28 07:06:32;;;;;;;2.50;1.50;;;;;;;;;;5019286;28;20031;-79
2021/04/28 07:08:58;;;;;;;2.73;1.40;;;;;;;;;;5038088;28;20064;-79
2021/04/28 07:11:23;;;;;;;3.33;1.40;;;;;;;;;;5004431;28;20061;-79
2021/04/28 07:13:48;;;;;;;2.27;1.40;;;;;;;;;;5004471;28;20037;-78
2021/04/28 07:16:14;;;;;;;2.47;1.60;;;;;;;;;;5004052;28;20064;-79
2021/04/28 07:18:39;;;;;;;3.27;1.50;;;;;;;;;;5005100;28;20383;-79
2021/04/28 07:21:05;;;;;;;2.03;1.30;;;;;;;;;;4987951;28;20069;-79
2021/04/28 07:23:30;;;;;;;2.00;1.30;;;;;;;;;;5020186;28;20115;-79
2021/04/28 07:25:55;;;;;;;2.47;1.30;;;;;;;;;;5003673;28;20133;-80
2021/04/28 07:28:21;;;;;;;2.07;1.30;;;;;;;;;;5020081;28;20069;-80
2021/04/28 07:30:46;;;;;;;2.60;1.53;;;;;;;;;;5004463;28;20091;-79
2021/04/28 07:33:11;;;;;;;2.40;1.50;;;;;;;;;;5003775;28;20060;-79
2021/04/28 07:35:37;;;;;;;3.27;1.47;;;;;;;;;;4987288;28;20064;-79
2021/04/28 07:38:02;;;;;;;5.63;1.47;;;;;;;;;;5003486;28;20069;-79
2021/04/28 07:40:27;;;;;;;2.83;1.30;;;;;;;;;;5004044;28;20068;-80
2021/04/28 07:42:53;;;;;;;2.53;1.50;;;;;;;;;;5020038;28;20066;-80
2021/04/28 07:45:18;;;;;;;2.83;1.50;;;;;;;;;;5003693;28;20073;-79
2021/04/28 07:47:44;;;;;;;5.60;1.97;;;;;;;;;;5019447;28;20045;-79
2021/04/28 07:50:10;;;;;;;2.37;1.60;;;;;;;;;;5003620;28;20080;-79
2021/04/28 07:52:35;;;;;;;3.00;1.45;;;;;;;;;;5020281;28;20041;-79
2021/04/28 07:55:00;;;;;;;3.83;1.63;;;;;;;;;;5003680;28;20064;-79
2021/04/28 07:57:26;;;;;;;1.97;1.27;;;;;;;;;;5003722;28;20036;-79
2021/04/28 07:59:51;;;;;;;2.53;1.50;;;;;;;;;;5003072;28;20075;-79
2021/04/28 08:02:16;;;;;;;2.37;1.43;;;;;;;;;;5003001;28;20084;-79
2021/04/28 08:04:42;;;;;;;2.57;1.67;;;;;;;;;;4986876;28;20029;-79
2021/04/28 08:07:07;;;;;;;2.73;1.50;;;;;;;;;;5019392;28;20071;-79
2021/04/28 08:09:35;;;;;;;3.37;1.60;;;;;;;;;;5019416;28;20103;-79
2021/04/28 08:12:00;;;;;;;2.97;1.60;;;;;;;;;;4987577;28;20035;-79
2021/04/28 08:14:25;;;;;;;1.87;1.30;;;;;;;;;;5003075;28;20030;-79
2021/04/28 08:16:51;;;;;;;3.17;1.70;;;;;;;;;;5019554;28;20071;-79
2021/04/28 08:19:16;;;;;;;5.23;1.63;;;;;;;;;;5019158;28;20523;-79
2021/04/28 08:21:41;;;;;;;2.50;1.43;;;;;;;;;;5003101;28;20036;-79
2021/04/28 08:24:07;;;;;;;2.40;1.47;;;;;;;;;;5003092;28;20060;-79
2021/04/28 08:26:32;;;;;;;2.27;1.40;;;;;;;;;;5002821;28;20034;-79
2021/04/28 08:28:58;;;;;;;2.77;1.40;;;;;;;;;;5018740;28;20120;-79
2021/04/28 08:31:23;;;;;;;2.30;1.50;;;;;;;;;;5001879;28;20072;-76
2021/04/28 08:33:49;;;;;;;3.70;1.60;;;;;;;;;;5000202;28;20036;-76
2021/04/28 08:36:14;;;;;;;3.93;1.57;;;;;;;;;;5000263;28;20476;-77
2021/04/28 08:38:40;;;;;;;1.93;1.40;;;;;;;;;;5026707;23;20087;-75
2021/04/28 08:41:06;;;;;;;3.77;1.60;;;;;;;;;;5039231;28;20471;-74
2021/04/28 08:43:32;;;;;;;;;;;;;;;;;;5056973;28;20406;-74
2021/04/28 08:45:57;;;;;;;4.03;1.73;;;;;;;;;;5074117;28;19908;-74
2021/04/28 08:48:23;;;;;;;4.95;1.60;;;;;;;;;;5074223;28;20493;-73
2021/04/28 08:50:49;;;;;;;2.10;1.33;;;;;;;;;;5073164;28;20498;-74
2021/04/28 08:53:14;;;;;;;2.30;1.47;;;;;;;;;;5056309;28;20058;-73
2021/04/28 08:55:40;;;;;;;2.85;1.60;;;;;;;;;;5073987;28;20028;-73
2021/04/28 08:58:06;;;;;;;3.80;1.70;;;;;;;;;;5039452;28;20043;-73
2021/04/28 09:00:32;;;;;;;2.10;1.40;;;;;;;;;;5072960;28;20398;-74
2021/04/28 09:03:00;;;;;;;2.07;1.43;;;;;;;;;;5056231;28;20075;-74
2021/04/28 09:05:25;;;;;;;3.28;1.42;;;;;;;;;;5072694;28;20029;-74
2021/04/28 09:07:51;;;;;;;3.07;1.43;;;;;;;;;;5073766;28;20028;-74
2021/04/28 09:10:22;;;;;;;3.80;1.70;;;;;;;;;;5072856;28;20033;-74
2021/04/28 09:12:52;;;;;;;3.13;1.63;;;;;;;;;;5072677;28;20028;-74
2021/04/28 09:15:38;;;;;;;3.22;1.35;;;;;;;;;;5072287;28;20062;-74
2021/04/28 09:18:05;;;;;;;3.63;1.60;;;;;;;;;;5072709;28;20082;-74
2021/04/28 09:20:34;;;;;;;;;;;;;;;;;;5072737;28;20033;-74
2021/04/28 09:23:03;;;;;;;2.40;1.55;;;;;;;;;;5072794;28;19943;-74
2021/04/28 09:25:45;;;;;;;2.40;1.50;;;;;;;;;;5055537;28;20040;-74
2021/04/28 09:28:29;;;;;;;2.65;1.67;;;;;;;;;;5072274;28;20066;-74
2021/04/28 09:31:07;;;;;;;2.58;1.45;;;;;;;;;;5073644;28;20036;-74
2021/04/28 09:33:41;;;;;;;2.15;1.30;;;;;;;;;;5073362;28;20040;-74
2021/04/28 09:36:07;;;;;;;3.38;1.48;;;;;;;;;;5073648;28;20066;-74
2021/04/28 09:38:47;;;;;;;2.75;1.58;;;;;;;;;;5072120;28;20128;-74
2021/04/28 09:41:12;;;;;;;2.58;1.40;;;;;;;;;;5055513;28;20039;-74
2021/04/28 09:43:38;;;;;;;3.40;1.50;;;;;;;;;;5055268;28;20068;-74
2021/04/28 09:46:03;;;;;;;2.03;1.30;;;;;;;;;;5072067;28;20112;-74
2021/04/28 09:48:28;;;;;;;3.00;1.50;;;;;;;;;;5073270;28;20506;-74
2021/04/28 09:51:08;;;;;;;2.83;1.60;;;;;;;;;;5072059;28;20036;-74
2021/04/28 09:53:33;;;;;;;3.10;1.52;;;;;;;;;;5055011;28;20028;-74
2021/04/28 09:55:58;;;;;;;2.57;1.47;;;;;;;;;;5071886;28;20082;-74
2021/04/28 09:58:52;;;;;;;3.97;1.67;;;;;;;;;;5055473;28;20032;-74
2021/04/28 10:01:30;;;;;;;2.45;1.42;;;;;;;;;;5073126;28;20103;-74
2021/04/28 10:03:55;;;;;;;3.00;1.60;;;;;;;;;;5071951;28;20035;-74
2021/04/28 10:06:42;;;;;;;2.30;1.50;;;;;;;;;;5055051;28;20028;-74
2021/04/28 10:09:26;;;;;;;2.20;1.40;;;;;;;;;;5055091;28;20507;-74
2021/04/28 10:11:51;;;;;;;2.53;1.40;;;;;;;;;;5073260;28;20118;-75
2021/04/28 10:14:16;;;;;;;2.87;1.60;;;;;;;;;;5055311;28;20505;-76
2021/04/28 10:16:42;;;;;;;3.43;1.53;;;;;;;;;;5072804;28;20025;-75
2021/04/28 10:19:07;;;;;;;2.27;1.30;;;;;;;;;;5071718;28;20470;-75
2021/04/28 10:21:33;;;;;;;3.10;1.70;;;;;;;;;;5054927;28;20032;-74
2021/04/28 10:23:58;;;;;;;2.73;1.50;;;;;;;;;;5071978;28;20119;-74
2021/04/28 10:26:24;;;;;;;2.83;1.60;;;;;;;;;;5054821;28;20052;-74
2021/04/28 10:28:49;;;;;;;3.00;1.57;;;;;;;;;;5054952;28;20107;-75
2021/04/28 10:31:14;;;;;;;4.00;1.70;;;;;;;;;;5038220;28;20064;-74
2021/04/28 10:33:40;;;;;;;2.50;1.63;;;;;;;;;;5071624;28;20518;-75
2021/04/28 10:36:05;;;;;;;3.87;1.60;;;;;;;;;;5071888;28;20067;-75
2021/04/28 10:38:31;;;;;;;2.00;1.30;;;;;;;;;;5054616;28;20040;-75
2021/04/28 10:40:56;;;;;;;2.03;1.30;;;;;;;;;;5071624;28;20115;-75
2021/04/28 10:43:33;;;;;;;3.13;1.53;;;;;;;;;;5054804;28;20056;-74
2021/04/28 10:45:58;;;;;;;3.03;1.60;;;;;;;;;;5071666;28;20035;-75
2021/04/28 10:48:23;;;;;;;2.43;1.27;;;;;;;;;;5055068;28;20068;-75
2021/04/28 10:50:49;;;;;;;2.40;1.50;;;;;;;;;;5054576;28;20083;-75
2021/04/28 10:53:21;;;;;;;2.40;1.30;;;;;;;;;;5072575;28;20119;-75
2021/04/28 10:55:50;;;;;;;2.60;1.55;;;;;;;;;;5071289;28;20271;-75
2021/04/28 10:58:26;;;;;;;3.20;1.58;;;;;;;;;;5071576;28;20115;-75
2021/04/28 11:03:35;;;;;;;;;;;;;;;;;;5072995;28;20082;-75
2021/04/28 11:08:55;;;;;;;2.47;1.48;;;;;;;;;;5076389;28;20044;-75
2021/04/28 11:11:41;;;;;;;2.60;1.60;;;;;;;;;;5076248;28;20506;-75
2021/04/28 11:16:47;;;;;;;2.67;1.50;;;;;;;;;;5076521;28;20182;-74
2021/04/28 11:19:19;;;;;;;2.78;1.50;;;;;;;;;;5076003;28;20502;-74
2021/04/28 11:21:45;;;;;;;3.33;1.67;;;;;;;;;;5074761;28;20035;-74
2021/04/28 11:24:14;;;;;;;3.60;1.60;;;;;;;;;;5074719;28;20036;-74
2021/04/28 11:26:48;;;;;;;3.15;1.70;;;;;;;;;;5057910;28;20103;-74
2021/04/28 11:29:14;;;;;;;2.60;1.50;;;;;;;;;;5058360;28;20046;-74
2021/04/28 11:31:45;;;;;;;2.30;1.53;;;;;;;;;;5075725;28;20102;-74
2021/04/28 11:34:31;;;;;;;2.58;1.60;;;;;;;;;;5075912;28;20519;-74
2021/04/28 11:37:04;;;;;;;2.25;1.40;;;;;;;;;;5074746;28;20029;-74
2021/04/28 11:39:45;;;;;;;4.75;1.60;;;;;;;;;;5073870;28;20036;-74
2021/04/28 11:42:17;;;;;;;2.63;1.48;;;;;;;;;;5057748;28;20028;-74
2021/04/28 11:44:50;;;;;;;2.45;1.42;;;;;;;;;;5073546;28;20025;-74
2021/04/28 11:47:25;;;;;;;3.20;1.60;;;;;;;;;;5074126;28;20029;-75
2021/04/28 11:49:57;;;;;;;2.80;1.45;;;;;;;;;;5074499;28;20032;-74
2021/04/28 11:52:24;;;;;;;2.65;1.63;;;;;;;;;;5057714;28;20037;-75
2021/04/28 11:54:53;;;;;;;3.00;1.40;;;;;;;;;;5057518;28;20056;-74
2021/04/28 11:57:29;;;;;;;2.28;1.48;;;;;;;;;;5073956;28;20024;-74
2021/04/28 12:00:05;;;;;;;2.90;1.35;;;;;;;;;;5057306;28;20119;-74
2021/04/28 12:02:30;;;;;;;1.83;1.30;;;;;;;;;;5057211;28;20043;-75
2021/04/28 12:04:55;;;;;;;2.20;1.50;;;;;;;;;;5075404;28;20052;-77
2021/04/28 12:07:21;;;;;;;2.57;1.33;;;;;;;;;;5074965;28;20071;-74
2021/04/28 12:09:48;;;;;;;2.63;1.47;;;;;;;;;;5073819;28;20074;-74
2021/04/28 12:12:29;;;;;;;4.07;1.52;;;;;;;;;;5057137;28;20024;-74
2021/04/28 12:15:10;;;;;;;2.38;1.40;;;;;;;;;;5056828;28;20039;-74
2021/04/28 12:17:43;;;;;;;2.78;1.50;;;;;;;;;;5078926;28;20028;-74
2021/04/28 12:20:15;;;;;;;2.83;1.45;;;;;;;;;;5078911;28;20056;-74
2021/04/28 12:22:41;;;;;;;3.80;1.35;;;;;;;;;;5078532;28;20050;-74
2021/04/28 12:25:07;;;;;;;3.37;1.77;;;;;;;;;;5060811;28;20036;-74
2021/04/28 12:27:35;;;;;;;2.22;1.38;;;;;;;;;;5060792;28;20109;-74
2021/04/28 12:30:09;;;;;;;3.17;1.50;;;;;;;;;;5078362;28;20518;-74
2021/04/28 12:32:36;;;;;;;2.78;1.50;;;;;;;;;;5079124;28;20044;-74
2021/04/28 12:35:16;;;;;;;4.55;1.70;;;;;;;;;;5060675;28;20025;-74
2021/04/28 12:38:04;;;;;;;2.20;1.40;;;;;;;;;;5077859;28;20029;-74
2021/04/28 12:40:36;;;;;;;2.75;1.40;;;;;;;;;;5077689;28;20082;-74
2021/04/28 12:43:02;;;;;;;2.63;1.40;;;;;;;;;;5087766;28;20028;-74
2021/04/28 12:45:28;;;;;;;3.42;1.60;;;;;;;;;;5088918;28;20104;-74
2021/04/28 12:48:11;;;;;;;3.23;1.63;;;;;;;;;;5066016;28;20020;-74
2021/04/28 12:50:37;;;;;;;2.55;1.58;;;;;;;;;;5080662;28;20028;-74
2021/04/28 12:53:26;;;;;;;2.40;1.63;;;;;;;;;;5081617;28;20043;-74
2021/04/28 12:55:53;;;;;;;2.90;1.60;;;;;;;;;;5079912;28;20040;-76
2021/04/28 12:58:20;;;;;;;5.07;1.73;;;;;;;;;;5079811;28;20028;-75
2021/04/28 13:00:46;;;;;;;4.80;1.65;;;;;;;;;;5080179;28;20028;-74
2021/04/28 13:03:12;;;;;;;;;;;;;;;;;;5079836;28;20120;-74
2021/04/28 13:05:40;;;;;;;11.10;2.05;;;;;;;;;;5079358;28;19931;-74
2021/04/28 13:08:27;;;;;;;3.83;2.03;;;;;;;;;;5079075;28;20025;-74
2021/04/28 13:11:08;;;;;;;5.55;2.25;;;;;;;;;;5079450;28;20144;-74
2021/04/28 13:13:34;;;;;;;4.30;2.40;;;;;;;;;;5078233;28;20512;-74
2021/04/28 13:16:00;;;;;;;4.88;2.15;;;;;;;;;;5078411;28;20107;-74
2021/04/28 13:18:26;;;;;;;5.90;2.60;;;;;;;;;;5078835;28;20494;-74
2021/04/28 13:20:51;;;;;;;4.93;2.60;;;;;;;;;;5060754;28;20059;-74
2021/04/28 13:23:18;;;;;;;5.07;2.50;;;;;;;;;;5061091;28;20060;-74
2021/04/28 13:25:46;;;;;;;;;;;;;;;;;;5077661;28;20028;-74
2021/04/28 13:28:27;;;;;;;4.90;2.58;;;;;;;;;;5077486;28;19971;-74
2021/04/28 13:31:13;;;;;;;6.13;2.72;;;;;;;;;;5076565;28;20059;-74
2021/04/28 13:33:38;;;;;;;4.55;2.65;;;;;;;;;;5078039;28;20541;-74
2021/04/28 13:36:04;;;;;;;4.30;2.43;;;;;;;;;;5077049;28;20063;-74
2021/04/28 13:38:29;;;;;;;7.30;2.70;;;;;;;;;;5058808;28;20127;-74
2021/04/28 13:40:54;;;;;;;10.33;3.17;;;;;;;;;;5059196;28;20516;-74
2021/04/28 13:43:20;;;;;;;5.23;2.60;;;;;;;;;;5077482;28;20033;-74
2021/04/28 13:45:45;;;;;;;6.47;2.97;;;;;;;;;;5059978;28;20080;-74
2021/04/28 13:48:11;;;;;;;6.67;2.87;;;;;;;;;;5077114;28;20391;-74
2021/04/28 13:50:36;;;;;;;5.47;2.87;;;;;;;;;;5077353;28;20036;-75
2021/04/28 13:53:02;;;;;;;17.63;3.53;;;;;;;;;;5077572;28;20499;-75
2021/04/28 13:55:27;;;;;;;13.75;3.55;;;;;;;;;;5059737;28;20032;-74
2021/04/28 13:57:53;;;;;;;6.93;3.20;;;;;;;;;;5059991;28;20050;-74
2021/04/28 14:00:19;;;;;;;7.87;3.23;;;;;;;;;;5076808;28;20040;-74
2021/04/28 14:02:45;;;;;;;11.37;3.77;;;;;;;;;;5076899;28;20028;-75
2021/04/28 14:05:11;;;;;;;22.90;5.43;;;;;;;;;;5078840;28;20035;-75
2021/04/28 14:07:37;;;;;;;9.65;3.80;;;;;;;;;;5044040;28;20461;-74
2021/04/28 14:10:03;;;;;;;7.33;3.33;;;;;;;;;;5077144;28;20028;-74
2021/04/28 14:12:29;;;;;;;10.30;3.40;;;;;;;;;;5076401;28;20035;-74
2021/04/28 14:14:54;;;;;;;10.23;3.17;;;;;;;;;;5076221;28;20402;-74
2021/04/28 14:17:19;;;;;;;9.20;3.40;;;;;;;;;;5076778;28;20043;-74
2021/04/28 14:19:45;;;;;;;5.87;2.93;;;;;;;;;;5076955;28;20487;-74
2021/04/28 14:22:10;;;;;;;7.90;3.20;;;;;;;;;;5076742;28;20067;-74
2021/04/28 14:24:35;;;;;;;7.70;3.00;;;;;;;;;;5077174;28;20028;-75
2021/04/28 14:27:01;;;;;;;7.83;3.17;;;;;;;;;;5076229;28;20032;-74
2021/04/28 14:29:26;;;;;;;6.23;2.90;;;;;;;;;;5073431;28;20067;-74
2021/04/28 14:31:51;;;;;;;5.80;2.80;;;;;;;;;;5072940;28;20039;-74
2021/04/28 14:34:17;;;;;;;7.10;3.37;;;;;;;;;;5073992;28;20552;-74
2021/04/28 14:36:42;;;;;;;6.70;3.20;;;;;;;;;;5073430;28;20511;-75
2021/04/28 14:39:08;;;;;;;7.37;2.90;;;;;;;;;;5075365;28;20068;-74
2021/04/28 14:41:34;;;;;;;6.30;3.03;;;;;;;;;;5078589;28;20371;-75
2021/04/28 14:43:59;;;;;;;7.77;2.83;;;;;;;;;;5077935;28;20332;-75
2021/04/28 14:46:24;;;;;;;7.47;3.13;;;;;;;;;;5060525;28;20084;-75
2021/04/28 14:48:50;;;;;;;9.03;3.00;;;;;;;;;;5085126;22;20040;-77
2021/04/28 14:51:15;;;;;;;6.13;2.90;;;;;;;;;;5027950;28;20060;-77
2021/04/28 14:53:41;;;;;;;4.67;2.63;;;;;;;;;;5022270;28;20037;-77
2021/04/28 14:56:08;;;;;;;5.65;2.88;;;;;;;;;;5005919;28;20040;-77